createdAt,value
2022-10-29T00:01:08.366Z,13.60
2022-10-29T00:03:37.369Z,13.50
2022-10-29T00:06:07.440Z,13.50
2022-10-29T00:08:37.639Z,13.50
2022-10-29T00:11:12.100Z,13.50
2022-10-29T00:13:40.399Z,13.50
2022-10-29T00:16:10.147Z,13.50
2022-10-29T00:18:38.659Z,13.50
2022-10-29T00:21:09.626Z,13.40
2022-10-29T00:23:38.054Z,13.40
2022-10-29T00:26:06.815Z,13.40
2022-10-29T00:28:36.847Z,13.30
2022-10-29T00:31:06.450Z,13.30
2022-10-29T00:33:35.143Z,13.20
2022-10-29T00:36:05.883Z,13.30
2022-10-29T00:38:35.528Z,13.20
2022-10-29T00:41:05.096Z,13.10
2022-10-29T00:43:37.781Z,13.10
2022-10-29T00:46:09.935Z,13.10
2022-10-29T00:48:43.490Z,13.10
2022-10-29T00:51:14.990Z,13.10
2022-10-29T00:53:47.152Z,13.20
2022-10-29T00:56:16.111Z,13.00
2022-10-29T00:58:46.536Z,13.10
2022-10-29T01:01:15.510Z,13.00
2022-10-29T01:03:43.738Z,13.00
2022-10-29T01:06:11.978Z,12.90
2022-10-29T01:08:40.158Z,13.00
2022-10-29T01:11:18.928Z,13.00
2022-10-29T01:13:59.189Z,13.00
2022-10-29T01:16:34.758Z,12.90
2022-10-29T01:19:13.952Z,12.80
2022-10-29T01:21:45.420Z,12.80
2022-10-29T01:24:41.022Z,12.90
2022-10-29T01:27:44.795Z,13.00
2022-10-29T01:30:24.652Z,12.90
2022-10-29T01:33:07.031Z,12.90
2022-10-29T01:35:46.230Z,12.80
2022-10-29T01:38:29.874Z,12.80
2022-10-29T01:41:04.499Z,12.80
2022-10-29T01:43:37.635Z,12.70
2022-10-29T01:46:10.593Z,12.70
2022-10-29T01:48:45.405Z,12.60
2022-10-29T01:51:19.102Z,12.60
2022-10-29T01:53:47.889Z,12.50
2022-10-29T01:56:16.076Z,12.60
2022-10-29T01:58:48.715Z,12.50
2022-10-29T02:01:32.423Z,12.50
2022-10-29T02:04:14.492Z,12.40
2022-10-29T02:06:52.435Z,12.40
2022-10-29T02:09:28.613Z,12.40
2022-10-29T02:12:04.460Z,12.30
2022-10-29T02:14:38.040Z,12.40
2022-10-29T02:17:07.513Z,12.30
2022-10-29T02:19:38.083Z,12.40
2022-10-29T02:22:06.509Z,12.30
2022-10-29T02:24:34.657Z,12.40
2022-10-29T02:27:02.888Z,12.30
2022-10-29T02:29:31.051Z,12.30
2022-10-29T02:31:59.221Z,12.30
2022-10-29T02:34:27.325Z,12.20
2022-10-29T02:36:56.962Z,12.20
2022-10-29T02:39:25.168Z,12.30
2022-10-29T02:41:53.319Z,12.30
2022-10-29T02:44:21.535Z,12.30
2022-10-29T02:46:49.747Z,12.30
2022-10-29T02:49:17.991Z,12.30
2022-10-29T02:51:46.228Z,12.50
2022-10-29T02:54:15.751Z,12.40
2022-10-29T02:56:44.039Z,12.50
2022-10-29T02:59:12.257Z,12.50
2022-10-29T03:01:40.541Z,12.50
2022-10-29T03:04:08.781Z,12.50
2022-10-29T03:06:37.839Z,12.50
2022-10-29T03:09:06.278Z,12.50
2022-10-29T03:11:35.915Z,12.50
2022-10-29T03:14:04.097Z,12.60
2022-10-29T03:16:32.644Z,12.60
2022-10-29T03:19:01.032Z,12.70
2022-10-29T03:21:29.410Z,12.70
2022-10-29T03:23:57.639Z,12.70
2022-10-29T03:26:25.914Z,12.70
2022-10-29T03:28:57.027Z,12.80
2022-10-29T03:31:25.244Z,12.90
2022-10-29T03:33:53.475Z,12.90
2022-10-29T03:36:21.879Z,13.00
2022-10-29T03:38:50.108Z,13.00
2022-10-29T03:41:18.336Z,13.00
2022-10-29T03:43:46.584Z,13.10
2022-10-29T03:46:16.202Z,13.10
2022-10-29T03:48:44.341Z,13.10
2022-10-29T03:51:12.577Z,13.10
2022-10-29T03:53:40.721Z,13.10
2022-10-29T03:56:10.527Z,13.00
2022-10-29T03:58:38.743Z,13.00
2022-10-29T04:01:08.827Z,12.90
2022-10-29T04:03:42.360Z,12.90
2022-10-29T04:06:12.696Z,12.80
2022-10-29T04:08:40.973Z,12.80
2022-10-29T04:11:11.593Z,12.80
2022-10-29T04:13:39.961Z,12.80
2022-10-29T04:16:08.585Z,12.70
2022-10-29T04:18:38.140Z,12.70
2022-10-29T04:22:57.125Z,12.70
2022-10-29T04:29:32.689Z,12.80
2022-10-29T04:32:00.848Z,12.80
2022-10-29T04:34:30.387Z,12.80
2022-10-29T04:36:58.574Z,12.90
2022-10-29T04:39:26.832Z,13.00
2022-10-29T04:41:54.947Z,13.00
2022-10-29T04:44:23.160Z,13.10
2022-10-29T04:46:51.286Z,13.10
2022-10-29T04:49:19.651Z,13.10
2022-10-29T04:51:49.328Z,13.20
2022-10-29T04:54:17.503Z,13.20
2022-10-29T04:56:45.646Z,13.20
2022-10-29T04:59:13.994Z,13.30
2022-10-29T05:01:42.168Z,13.30
2022-10-29T05:04:10.451Z,13.40
2022-10-29T05:06:38.646Z,13.40
2022-10-29T05:09:08.243Z,13.40
2022-10-29T05:11:36.414Z,13.40
2022-10-29T05:14:04.818Z,13.40
2022-10-29T05:16:33.588Z,13.40
2022-10-29T05:19:02.863Z,13.50
2022-10-29T05:21:31.201Z,13.50
2022-10-29T05:23:59.558Z,13.60
2022-10-29T05:26:31.254Z,13.60
2022-10-29T05:28:59.549Z,13.70
2022-10-29T05:31:27.766Z,13.70
2022-10-29T05:33:56.219Z,13.70
2022-10-29T05:36:24.713Z,13.80
2022-10-29T05:38:52.986Z,13.80
2022-10-29T05:41:21.571Z,13.80
2022-10-29T05:43:51.937Z,13.80
2022-10-29T05:46:20.195Z,13.90
2022-10-29T05:48:48.442Z,13.80
2022-10-29T05:51:16.650Z,13.90
2022-10-29T05:53:44.848Z,13.90
2022-10-29T05:56:12.961Z,13.90
2022-10-29T05:58:41.277Z,14.00
2022-10-29T06:01:11.867Z,14.00
2022-10-29T06:03:40.491Z,14.00
2022-10-29T06:06:09.168Z,14.00
2022-10-29T06:08:37.465Z,14.00
2022-10-29T06:11:06.117Z,14.00
2022-10-29T06:13:34.553Z,14.00
2022-10-29T06:16:02.760Z,14.10
2022-10-29T06:18:32.372Z,14.10
2022-10-29T06:21:01.453Z,14.20
2022-10-29T06:23:30.153Z,14.30
2022-10-29T06:26:00.855Z,14.40
2022-10-29T06:28:33.620Z,14.50
2022-10-29T06:31:03.285Z,14.60
2022-10-29T06:33:32.911Z,14.60
2022-10-29T06:36:01.728Z,14.60
2022-10-29T06:38:30.060Z,14.70
2022-10-29T06:40:58.545Z,14.70
2022-10-29T06:43:26.794Z,14.70
2022-10-29T06:45:55.653Z,14.70
2022-10-29T06:48:23.961Z,14.70
2022-10-29T06:50:53.589Z,14.70
2022-10-29T06:53:22.131Z,14.70
2022-10-29T06:55:50.373Z,14.70
2022-10-29T06:58:20.231Z,14.80
2022-10-29T07:00:49.372Z,14.90
2022-10-29T07:03:18.847Z,14.90
2022-10-29T07:05:47.430Z,14.90
2022-10-29T07:08:16.992Z,15.00
2022-10-29T07:10:45.204Z,15.00
2022-10-29T07:13:13.333Z,15.30
2022-10-29T07:15:41.576Z,15.40
2022-10-29T07:18:10.544Z,15.70
2022-10-29T07:20:40.446Z,15.80
2022-10-29T07:23:09.092Z,15.90
2022-10-29T07:25:39.747Z,16.10
2022-10-29T07:28:11.552Z,16.00
2022-10-29T07:30:40.274Z,16.10
2022-10-29T07:33:08.725Z,16.10
2022-10-29T07:35:37.057Z,16.20
2022-10-29T07:38:09.179Z,16.20
2022-10-29T07:40:41.678Z,16.30
2022-10-29T07:43:10.915Z,16.30
2022-10-29T07:45:39.143Z,16.20
2022-10-29T07:48:08.821Z,16.40
2022-10-29T07:50:38.306Z,16.50
2022-10-29T07:53:07.861Z,16.60
2022-10-29T07:55:36.235Z,16.70
2022-10-29T07:58:07.936Z,16.60
2022-10-29T08:00:38.547Z,16.70
2022-10-29T08:03:07.446Z,16.80
2022-10-29T08:05:35.841Z,17.00
2022-10-29T08:08:04.016Z,17.00
2022-10-29T08:10:33.139Z,17.10
2022-10-29T08:13:04.227Z,17.20
2022-10-29T08:15:35.839Z,17.30
2022-10-29T08:18:10.421Z,17.30
2022-10-29T08:20:38.646Z,17.30
2022-10-29T08:23:06.786Z,17.40
2022-10-29T08:25:36.733Z,17.40
2022-10-29T08:28:05.953Z,17.50
2022-10-29T08:30:35.882Z,17.60
2022-10-29T08:33:04.673Z,17.50
2022-10-29T08:35:33.364Z,17.60
2022-10-29T08:38:01.704Z,17.50
2022-10-29T08:40:32.716Z,17.50
2022-10-29T08:43:55.429Z,17.50
2022-10-29T08:46:34.524Z,17.70
2022-10-29T08:49:07.341Z,17.40
2022-10-29T08:51:40.072Z,17.50
2022-10-29T08:54:30.165Z,17.50
2022-10-29T08:57:02.865Z,17.70
2022-10-29T08:59:35.280Z,17.80
2022-10-29T09:02:05.021Z,18.10
2022-10-29T09:04:35.974Z,18.20
2022-10-29T09:07:40.315Z,18.30
2022-10-29T09:10:17.931Z,18.40
2022-10-29T09:13:00.349Z,18.30
2022-10-29T09:15:57.625Z,18.20
2022-10-29T09:18:36.720Z,18.30
2022-10-29T09:21:13.741Z,18.30
2022-10-29T09:24:03.087Z,18.40
2022-10-29T09:26:34.930Z,18.40
2022-10-29T09:29:23.507Z,18.30
2022-10-29T09:31:55.876Z,18.20
2022-10-29T09:34:31.966Z,17.90
2022-10-29T09:37:00.266Z,18.10
2022-10-29T09:39:34.606Z,17.90
2022-10-29T09:42:03.984Z,18.10
2022-10-29T09:44:39.637Z,18.20
2022-10-29T09:47:15.036Z,18.10
2022-10-29T09:50:08.488Z,18.10
2022-10-29T09:52:40.923Z,18.30
2022-10-29T09:55:18.411Z,18.40
2022-10-29T09:57:47.095Z,18.30
2022-10-29T10:00:20.993Z,18.20
2022-10-29T10:02:55.013Z,18.40
2022-10-29T10:05:28.692Z,17.80
2022-10-29T10:08:12.148Z,18.20
2022-10-29T10:10:52.811Z,17.70
2022-10-29T10:13:26.104Z,18.00
2022-10-29T10:15:57.916Z,17.60
2022-10-29T10:18:28.032Z,17.70
2022-10-29T10:21:07.640Z,17.50
2022-10-29T10:23:46.320Z,17.50
2022-10-29T10:26:41.580Z,17.50
2022-10-29T10:29:17.927Z,17.10
2022-10-29T10:31:47.843Z,17.90
2022-10-29T10:34:20.189Z,18.00
2022-10-29T10:36:52.793Z,18.10
2022-10-29T10:39:26.166Z,17.90
2022-10-29T10:41:56.144Z,17.60
2022-10-29T10:44:24.797Z,17.20
2022-10-29T10:46:55.539Z,17.20
2022-10-29T10:49:31.794Z,17.00
2022-10-29T10:52:05.123Z,16.90
2022-10-29T10:54:37.805Z,17.10
2022-10-29T10:57:20.338Z,17.10
2022-10-29T10:59:55.961Z,16.90
2022-10-29T11:02:31.661Z,16.80
2022-10-29T11:05:07.739Z,17.20
2022-10-29T11:07:42.468Z,17.20
2022-10-29T11:10:15.009Z,17.10
2022-10-29T11:12:47.433Z,17.60
2022-10-29T11:15:23.088Z,17.70
2022-10-29T11:17:57.306Z,17.70
2022-10-29T11:20:29.206Z,17.70
2022-10-29T11:23:07.961Z,17.70
2022-10-29T11:25:42.753Z,17.80
2022-10-29T11:28:30.587Z,18.20
2022-10-29T11:31:06.474Z,18.20
2022-10-29T11:33:42.863Z,18.10
2022-10-29T11:36:17.536Z,18.10
2022-10-29T11:38:51.858Z,17.80
2022-10-29T11:41:28.053Z,17.80
2022-10-29T11:43:56.453Z,18.00
2022-10-29T11:46:33.987Z,18.00
2022-10-29T11:49:12.371Z,17.60
2022-10-29T11:51:51.795Z,17.80
2022-10-29T11:54:37.777Z,17.90
2022-10-29T11:57:13.935Z,17.70
2022-10-29T11:59:55.770Z,17.90
2022-10-29T12:02:36.458Z,18.20
2022-10-29T12:05:15.191Z,18.20
2022-10-29T12:07:56.556Z,17.80
2022-10-29T12:10:46.535Z,18.20
2022-10-29T12:13:25.941Z,18.00
2022-10-29T12:16:08.798Z,18.00
2022-10-29T12:18:44.303Z,17.90
2022-10-29T12:21:23.130Z,17.90
2022-10-29T12:24:02.710Z,17.80
2022-10-29T12:26:38.774Z,17.90
2022-10-29T12:29:17.139Z,18.00
2022-10-29T12:31:56.008Z,18.00
2022-10-29T12:34:30.934Z,17.90
2022-10-29T12:37:10.020Z,18.20
2022-10-29T12:39:42.188Z,18.40
2022-10-29T12:42:18.621Z,18.30
2022-10-29T12:44:57.457Z,18.50
2022-10-29T12:47:28.012Z,18.20
2022-10-29T12:50:06.622Z,18.20
2022-10-29T12:52:39.908Z,18.50
2022-10-29T12:55:11.560Z,18.60
2022-10-29T12:57:41.380Z,18.70
2022-10-29T13:00:44.924Z,18.50
2022-10-29T13:03:13.282Z,18.80
2022-10-29T13:05:43.520Z,18.50
2022-10-29T13:08:36.211Z,18.20
2022-10-29T13:11:20.632Z,18.40
2022-10-29T13:13:56.914Z,18.60
2022-10-29T13:16:31.628Z,18.20
2022-10-29T13:19:18.254Z,18.00
2022-10-29T13:22:33.394Z,17.80
2022-10-29T13:25:50.323Z,17.90
2022-10-29T13:28:50.673Z,17.80
2022-10-29T13:31:58.381Z,17.70
2022-10-29T13:34:53.009Z,17.60
2022-10-29T13:37:52.941Z,17.70
2022-10-29T13:41:04.317Z,17.80
2022-10-29T13:43:34.140Z,17.60
2022-10-29T13:46:45.884Z,17.30
2022-10-29T13:49:18.838Z,17.30
2022-10-29T13:51:56.004Z,17.20
2022-10-29T13:54:39.359Z,17.10
2022-10-29T13:57:17.013Z,17.00
2022-10-29T13:59:51.996Z,17.00
2022-10-29T14:02:45.137Z,16.90
2022-10-29T14:05:20.576Z,16.90
2022-10-29T14:07:56.525Z,16.80
2022-10-29T14:10:31.880Z,16.80
2022-10-29T14:13:06.111Z,16.70
2022-10-29T14:15:34.743Z,16.60
2022-10-29T14:18:18.395Z,16.60
2022-10-29T14:20:55.934Z,16.60
2022-10-29T14:23:26.466Z,16.60
2022-10-29T14:25:56.012Z,16.50
2022-10-29T14:28:27.044Z,16.50
2022-10-29T14:31:04.244Z,16.40
2022-10-29T14:33:33.991Z,16.40
2022-10-29T14:36:10.347Z,16.30
2022-10-29T14:38:45.722Z,16.30
2022-10-29T14:41:15.671Z,16.20
2022-10-29T14:43:44.445Z,16.20
2022-10-29T14:46:26.242Z,16.20
2022-10-29T14:49:02.332Z,16.10
2022-10-29T14:51:34.397Z,16.00
2022-10-29T14:54:06.723Z,15.90
2022-10-29T14:56:37.580Z,15.90
2022-10-29T14:59:16.406Z,15.80
2022-10-29T15:01:56.955Z,15.80
2022-10-29T15:04:31.181Z,15.80
2022-10-29T15:07:25.901Z,15.80
2022-10-29T15:10:18.543Z,15.70
2022-10-29T15:12:47.538Z,15.70
2022-10-29T15:15:27.612Z,15.60
2022-10-29T15:18:01.598Z,15.60
2022-10-29T15:20:34.640Z,15.60
2022-10-29T15:23:03.951Z,15.50
2022-10-29T15:25:37.210Z,15.60
2022-10-29T15:28:10.357Z,15.50
2022-10-29T15:30:39.900Z,15.50
2022-10-29T15:33:16.020Z,15.50
2022-10-29T15:35:51.812Z,15.50
2022-10-29T15:39:11.596Z,15.40
2022-10-29T15:41:48.478Z,15.30
2022-10-29T15:44:30.792Z,15.30
2022-10-29T15:47:00.385Z,15.30
2022-10-29T15:49:32.362Z,15.40
2022-10-29T15:52:01.865Z,15.40
2022-10-29T15:54:30.445Z,15.30
2022-10-29T15:57:00.013Z,15.30
2022-10-29T15:59:28.243Z,15.30
2022-10-29T16:01:56.594Z,15.40
2022-10-29T16:04:24.762Z,15.30
2022-10-29T16:06:53.070Z,15.30
2022-10-29T16:09:22.084Z,15.30
2022-10-29T16:11:52.070Z,15.30
2022-10-29T16:14:21.831Z,15.20
2022-10-29T16:16:50.027Z,15.20
2022-10-29T16:19:18.170Z,15.20
2022-10-29T16:21:46.452Z,15.20
2022-10-29T16:24:15.853Z,15.10
2022-10-29T16:26:44.198Z,15.30
2022-10-29T16:29:16.137Z,15.30
2022-10-29T16:31:46.006Z,15.30
2022-10-29T16:34:17.245Z,15.40
2022-10-29T16:36:48.042Z,15.40
2022-10-29T16:39:16.197Z,15.10
2022-10-29T16:41:44.779Z,15.00
2022-10-29T16:44:13.817Z,14.90
2022-10-29T16:46:42.127Z,14.70
2022-10-29T16:49:11.660Z,14.80
2022-10-29T16:51:39.966Z,14.70
2022-10-29T16:54:08.168Z,14.60
2022-10-29T16:56:36.479Z,14.60
2022-10-29T16:59:04.705Z,14.60
2022-10-29T17:01:33.079Z,14.60
2022-10-29T17:04:01.229Z,14.60
2022-10-29T17:06:31.092Z,14.50
2022-10-29T17:08:59.328Z,14.60
2022-10-29T17:11:27.585Z,14.60
2022-10-29T17:13:55.766Z,14.60
2022-10-29T17:16:24.131Z,14.60
2022-10-29T17:18:52.380Z,14.50
2022-10-29T17:21:20.867Z,14.60
2022-10-29T17:23:50.610Z,14.60
2022-10-29T17:26:18.969Z,14.50
2022-10-29T17:28:47.218Z,14.50
2022-10-29T17:31:16.342Z,14.50
2022-10-29T17:33:44.502Z,14.50
2022-10-29T17:36:14.952Z,14.50
2022-10-29T17:38:43.343Z,14.50
2022-10-29T17:41:13.199Z,14.50
2022-10-29T17:43:41.352Z,14.50
2022-10-29T17:46:09.761Z,14.50
2022-10-29T17:48:38.900Z,14.40
2022-10-29T17:51:08.434Z,14.40
2022-10-29T17:53:38.380Z,14.40
2022-10-29T17:56:07.223Z,14.30
2022-10-29T17:58:38.761Z,14.40
2022-10-29T18:01:08.552Z,14.30
2022-10-29T18:03:37.662Z,14.30
2022-10-29T18:06:08.348Z,14.30
2022-10-29T18:08:37.519Z,14.20
2022-10-29T18:11:06.980Z,14.10
2022-10-29T18:13:41.320Z,14.10
2022-10-29T18:16:10.724Z,14.10
2022-10-29T18:18:54.431Z,14.10
2022-10-29T18:21:29.262Z,14.10
2022-10-29T18:23:57.378Z,14.10
2022-10-29T18:26:27.821Z,14.00
2022-10-29T18:28:57.825Z,14.00
2022-10-29T18:31:28.599Z,13.90
2022-10-29T18:33:57.220Z,13.80
2022-10-29T18:36:25.436Z,13.80
2022-10-29T18:38:55.185Z,13.70
2022-10-29T18:41:23.914Z,13.80
2022-10-29T18:43:52.565Z,13.70
2022-10-29T18:46:22.290Z,13.60
2022-10-29T18:48:51.250Z,13.60
2022-10-29T18:51:21.286Z,13.50
2022-10-29T18:53:49.560Z,13.50
2022-10-29T18:56:20.545Z,13.50
2022-10-29T18:58:49.429Z,13.50
2022-10-29T19:01:23.523Z,13.50
2022-10-29T19:03:53.524Z,13.40
2022-10-29T19:06:22.483Z,13.40
2022-10-29T19:08:51.542Z,13.40
2022-10-29T19:11:21.555Z,13.40
2022-10-29T19:13:52.177Z,13.40
2022-10-29T19:16:22.102Z,13.40
2022-10-29T19:18:55.728Z,13.30
2022-10-29T19:21:24.589Z,13.30
2022-10-29T19:23:56.056Z,13.20
2022-10-29T19:26:25.731Z,13.30
2022-10-29T19:28:53.899Z,13.30
2022-10-29T19:31:26.402Z,13.30
2022-10-29T19:33:56.904Z,13.40
2022-10-29T19:36:25.999Z,13.30
2022-10-29T19:38:54.243Z,13.40
2022-10-29T19:41:22.456Z,13.40
2022-10-29T19:43:50.807Z,13.30
2022-10-29T19:46:22.918Z,13.30
2022-10-29T19:48:53.852Z,13.20
2022-10-29T19:51:22.931Z,13.10
2022-10-29T19:53:52.435Z,13.10
2022-10-29T19:56:21.392Z,13.10
2022-10-29T19:58:50.031Z,13.10
2022-10-29T20:01:19.609Z,13.00
2022-10-29T20:03:48.268Z,12.90
2022-10-29T20:06:18.296Z,12.90
2022-10-29T20:08:46.700Z,12.80
2022-10-29T20:11:14.818Z,12.70
2022-10-29T20:13:43.235Z,12.60
2022-10-29T20:16:14.711Z,12.60
2022-10-29T20:18:42.925Z,12.60
2022-10-29T20:21:11.625Z,12.60
2022-10-29T20:23:41.849Z,12.70
2022-10-29T20:26:10.456Z,12.60
2022-10-29T20:28:39.374Z,12.60
2022-10-29T20:31:31.046Z,12.50
2022-10-29T20:34:01.436Z,12.60
2022-10-29T20:36:31.635Z,12.50
2022-10-29T20:39:01.519Z,12.60
2022-10-29T20:41:30.386Z,12.60
2022-10-29T20:44:01.263Z,12.50
2022-10-29T20:46:29.976Z,12.40
2022-10-29T20:48:58.175Z,12.40
2022-10-29T20:51:26.576Z,12.40
2022-10-29T20:53:55.746Z,12.40
2022-10-29T20:56:26.612Z,12.40
2022-10-29T20:58:55.154Z,12.40
2022-10-29T21:01:25.087Z,12.40
2022-10-29T21:03:53.458Z,12.40
2022-10-29T21:06:21.862Z,12.30
2022-10-29T21:08:52.016Z,12.40
2022-10-29T21:11:21.742Z,12.40
2022-10-29T21:13:51.947Z,12.40
2022-10-29T21:16:22.028Z,12.50
2022-10-29T21:18:52.179Z,12.50
2022-10-29T21:21:20.827Z,12.50
2022-10-29T21:23:49.295Z,12.50
2022-10-29T21:26:19.585Z,12.50
2022-10-29T21:28:50.684Z,12.50
2022-10-29T21:31:21.843Z,12.60
2022-10-29T21:33:50.871Z,12.60
2022-10-29T21:36:19.314Z,12.60
2022-10-29T21:38:48.281Z,12.60
2022-10-29T21:41:16.885Z,12.60
2022-10-29T21:43:45.241Z,12.70
2022-10-29T21:46:14.809Z,12.60
2022-10-29T21:48:43.030Z,12.60
2022-10-29T21:51:13.097Z,12.60
2022-10-29T21:53:41.539Z,12.60
2022-10-29T21:56:16.091Z,12.60
2022-10-29T21:58:45.101Z,12.50
2022-10-29T22:01:16.079Z,12.60
2022-10-29T22:03:45.931Z,12.60
2022-10-29T22:06:16.411Z,12.60
2022-10-29T22:08:45.364Z,12.60
2022-10-29T22:11:14.641Z,12.60
2022-10-29T22:13:42.879Z,12.50
2022-10-29T22:16:11.740Z,12.50
2022-10-29T22:18:41.774Z,12.50
2022-10-29T22:21:13.219Z,12.60
2022-10-29T22:23:45.335Z,12.60
2022-10-29T22:26:15.076Z,12.60
2022-10-29T22:28:43.569Z,12.60
2022-10-29T22:31:12.627Z,12.60
2022-10-29T22:33:42.791Z,12.70
2022-10-29T22:36:13.057Z,12.70
2022-10-29T22:38:41.294Z,12.70
2022-10-29T22:41:11.056Z,12.80
2022-10-29T22:43:39.339Z,12.80
2022-10-29T22:46:08.977Z,12.80
2022-10-29T22:48:37.529Z,12.80
2022-10-29T22:51:10.699Z,12.80
2022-10-29T22:53:38.996Z,12.80
2022-10-29T22:56:07.971Z,12.80
2022-10-29T22:58:36.194Z,12.80
2022-10-29T23:01:06.407Z,12.70
2022-10-29T23:03:35.075Z,12.70
2022-10-29T23:06:05.088Z,12.70
2022-10-29T23:08:36.220Z,12.70
2022-10-29T23:11:08.169Z,12.80
2022-10-29T23:13:36.520Z,12.70
2022-10-29T23:16:05.136Z,12.70
2022-10-29T23:18:33.400Z,12.70
2022-10-29T23:21:02.873Z,12.70
2022-10-29T23:23:32.006Z,12.70
2022-10-29T23:26:03.147Z,12.70
2022-10-29T23:28:32.977Z,12.70
2022-10-29T23:31:02.805Z,12.70
2022-10-29T23:33:32.596Z,12.70
2022-10-29T23:36:03.292Z,12.70
2022-10-29T23:38:31.683Z,12.70
2022-10-29T23:41:01.284Z,12.70
2022-10-29T23:43:30.204Z,12.70
2022-10-29T23:45:58.484Z,12.70
2022-10-29T23:48:27.244Z,12.60
2022-10-29T23:50:56.510Z,12.60
2022-10-29T23:53:26.007Z,12.50
2022-10-29T23:55:54.185Z,12.50
2022-10-29T23:58:23.860Z,12.50
